sensor_id;sensor_type;location;lat;lon;timestamp;pressure;altitude;pressure_sealevel;temperature;humidity
16834;BME280;8533;48.426;10.868;2023-12-20T00:01:15;96091.38;;;4.96;86.39
16834;BME280;8533;48.426;10.868;2023-12-20T00:03:40;96077.09;;;4.87;87.00
16834;BME280;8533;48.426;10.868;2023-12-20T00:06:05;96063.25;;;4.75;86.57
16834;BME280;8533;48.426;10.868;2023-12-20T00:08:30;96108.69;;;5.03;86.27
16834;BME280;8533;48.426;10.868;2023-12-20T00:10:56;96037.88;;;4.52;86.40
16834;BME280;8533;48.426;10.868;2023-12-20T00:13:21;95924.19;;;3.88;85.78
16834;BME280;8533;48.426;10.868;2023-12-20T00:15:46;96057.66;;;4.78;86.25
16834;BME280;8533;48.426;10.868;2023-12-20T00:18:12;95974.28;;;4.32;86.91
16834;BME280;8533;48.426;10.868;2023-12-20T00:20:37;96048.38;;;4.89;87.22
16834;BME280;8533;48.426;10.868;2023-12-20T00:23:02;96057.34;;;4.93;88.03
16834;BME280;8533;48.426;10.868;2023-12-20T00:25:28;96062.53;;;4.93;87.29
16834;BME280;8533;48.426;10.868;2023-12-20T00:27:53;96073.81;;;4.98;88.01
16834;BME280;8533;48.426;10.868;2023-12-20T00:30:18;96020.50;;;4.59;87.61
16834;BME280;8533;48.426;10.868;2023-12-20T00:32:44;96089.19;;;5.00;87.69
16834;BME280;8533;48.426;10.868;2023-12-20T00:35:14;95916.84;;;3.85;87.79
16834;BME280;8533;48.426;10.868;2023-12-20T00:37:40;96105.94;;;4.97;88.60
16834;BME280;8533;48.426;10.868;2023-12-20T00:40:06;96070.25;;;4.68;88.74
16834;BME280;8533;48.426;10.868;2023-12-20T00:42:32;96104.19;;;4.91;89.34
16834;BME280;8533;48.426;10.868;2023-12-20T00:44:58;96090.19;;;4.68;89.97
16834;BME280;8533;48.426;10.868;2023-12-20T00:47:24;96101.94;;;4.95;90.70
16834;BME280;8533;48.426;10.868;2023-12-20T00:49:49;96028.69;;;4.56;90.87
16834;BME280;8533;48.426;10.868;2023-12-20T00:52:14;96108.38;;;4.92;90.66
16834;BME280;8533;48.426;10.868;2023-12-20T00:54:42;96089.03;;;4.88;90.65
16834;BME280;8533;48.426;10.868;2023-12-20T00:57:07;96011.84;;;4.41;89.94
16834;BME280;8533;48.426;10.868;2023-12-20T00:59:32;96087.44;;;4.87;90.21
16834;BME280;8533;48.426;10.868;2023-12-20T01:01:58;96091.38;;;4.96;90.28
16834;BME280;8533;48.426;10.868;2023-12-20T01:04:23;96106.31;;;5.01;91.28
16834;BME280;8533;48.426;10.868;2023-12-20T01:06:48;96066.31;;;4.90;91.65
16834;BME280;8533;48.426;10.868;2023-12-20T01:09:13;96003.19;;;4.60;91.72
16834;BME280;8533;48.426;10.868;2023-12-20T01:11:39;96073.97;;;5.04;92.94
16834;BME280;8533;48.426;10.868;2023-12-20T01:14:04;96080.75;;;5.05;94.03
16834;BME280;8533;48.426;10.868;2023-12-20T01:16:30;96084.25;;;5.17;92.98
16834;BME280;8533;48.426;10.868;2023-12-20T01:18:55;96052.44;;;5.03;94.08
16834;BME280;8533;48.426;10.868;2023-12-20T01:21:20;96051.25;;;5.06;93.91
16834;BME280;8533;48.426;10.868;2023-12-20T01:23:46;96052.41;;;5.10;94.79
16834;BME280;8533;48.426;10.868;2023-12-20T01:26:11;96041.25;;;5.09;95.32
16834;BME280;8533;48.426;10.868;2023-12-20T01:28:37;96035.28;;;5.09;96.15
16834;BME280;8533;48.426;10.868;2023-12-20T01:31:03;96062.06;;;5.21;96.84
16834;BME280;8533;48.426;10.868;2023-12-20T01:33:29;96058.06;;;5.25;96.16
16834;BME280;8533;48.426;10.868;2023-12-20T01:35:54;96043.50;;;5.24;96.64
16834;BME280;8533;48.426;10.868;2023-12-20T01:38:19;96038.19;;;5.19;96.58
16834;BME280;8533;48.426;10.868;2023-12-20T01:40:45;95991.53;;;4.94;95.68
16834;BME280;8533;48.426;10.868;2023-12-20T01:43:11;95993.75;;;4.90;97.06
16834;BME280;8533;48.426;10.868;2023-12-20T01:45:39;95999.59;;;5.04;95.14
16834;BME280;8533;48.426;10.868;2023-12-20T01:48:05;96017.66;;;5.17;95.44
16834;BME280;8533;48.426;10.868;2023-12-20T01:50:31;96005.69;;;5.16;94.98
16834;BME280;8533;48.426;10.868;2023-12-20T01:53:00;95948.84;;;4.78;93.85
16834;BME280;8533;48.426;10.868;2023-12-20T01:55:28;96043.00;;;5.15;94.50
16834;BME280;8533;48.426;10.868;2023-12-20T01:57:56;96017.47;;;5.12;93.88
16834;BME280;8533;48.426;10.868;2023-12-20T02:00:23;95938.16;;;4.68;94.32
16834;BME280;8533;48.426;10.868;2023-12-20T02:02:50;95920.88;;;4.37;94.47
16834;BME280;8533;48.426;10.868;2023-12-20T02:05:16;96002.38;;;5.09;94.70
16834;BME280;8533;48.426;10.868;2023-12-20T02:07:42;96013.53;;;5.10;94.95
16834;BME280;8533;48.426;10.868;2023-12-20T02:10:07;95985.78;;;4.92;95.72
16834;BME280;8533;48.426;10.868;2023-12-20T02:12:33;96013.38;;;5.05;96.56
16834;BME280;8533;48.426;10.868;2023-12-20T02:14:58;96000.69;;;4.96;97.75
16834;BME280;8533;48.426;10.868;2023-12-20T02:17:24;95996.41;;;4.84;98.41
16834;BME280;8533;48.426;10.868;2023-12-20T02:19:49;95957.88;;;4.69;98.27
16834;BME280;8533;48.426;10.868;2023-12-20T02:22:15;96030.94;;;5.03;99.20
16834;BME280;8533;48.426;10.868;2023-12-20T02:24:40;95978.34;;;4.77;100.00
16834;BME280;8533;48.426;10.868;2023-12-20T02:27:06;96001.25;;;4.98;100.00
16834;BME280;8533;48.426;10.868;2023-12-20T02:29:33;96014.75;;;5.07;100.00
16834;BME280;8533;48.426;10.868;2023-12-20T02:31:58;96001.41;;;5.04;100.00
16834;BME280;8533;48.426;10.868;2023-12-20T02:34:23;95995.88;;;5.00;100.00
16834;BME280;8533;48.426;10.868;2023-12-20T02:36:49;95994.34;;;4.92;100.00
16834;BME280;8533;48.426;10.868;2023-12-20T02:39:14;95993.91;;;4.95;100.00
16834;BME280;8533;48.426;10.868;2023-12-20T02:41:39;95992.91;;;4.96;100.00
16834;BME280;8533;48.426;10.868;2023-12-20T02:44:05;95975.47;;;4.85;100.00
16834;BME280;8533;48.426;10.868;2023-12-20T02:46:30;96000.25;;;4.99;100.00
16834;BME280;8533;48.426;10.868;2023-12-20T02:48:55;95998.88;;;4.97;100.00
16834;BME280;8533;48.426;10.868;2023-12-20T02:51:20;95953.38;;;4.58;100.00
16834;BME280;8533;48.426;10.868;2023-12-20T02:53:46;95951.06;;;4.50;100.00
16834;BME280;8533;48.426;10.868;2023-12-20T02:56:11;95994.97;;;4.63;100.00
16834;BME280;8533;48.426;10.868;2023-12-20T02:58:36;95998.78;;;4.60;100.00
16834;BME280;8533;48.426;10.868;2023-12-20T03:01:02;95966.16;;;4.28;100.00
16834;BME280;8533;48.426;10.868;2023-12-20T03:03:27;96022.56;;;4.51;100.00
16834;BME280;8533;48.426;10.868;2023-12-20T03:05:52;95939.50;;;3.90;100.00
16834;BME280;8533;48.426;10.868;2023-12-20T03:08:18;96018.53;;;4.23;100.00
16834;BME280;8533;48.426;10.868;2023-12-20T03:10:43;95952.91;;;3.73;100.00
16834;BME280;8533;48.426;10.868;2023-12-20T03:13:08;95991.06;;;3.84;100.00
16834;BME280;8533;48.426;10.868;2023-12-20T03:15:34;96006.19;;;3.88;100.00
16834;BME280;8533;48.426;10.868;2023-12-20T03:17:59;95968.50;;;3.60;100.00
16834;BME280;8533;48.426;10.868;2023-12-20T03:20:25;95954.63;;;3.41;100.00
16834;BME280;8533;48.426;10.868;2023-12-20T03:22:51;95836.66;;;2.58;100.00
16834;BME280;8533;48.426;10.868;2023-12-20T03:25:17;95968.97;;;3.37;100.00
16834;BME280;8533;48.426;10.868;2023-12-20T03:27:42;96032.50;;;3.78;100.00
16834;BME280;8533;48.426;10.868;2023-12-20T03:30:08;96009.66;;;3.62;100.00
16834;BME280;8533;48.426;10.868;2023-12-20T03:32:34;95967.00;;;3.33;100.00
16834;BME280;8533;48.426;10.868;2023-12-20T03:34:59;96035.09;;;3.71;100.00
16834;BME280;8533;48.426;10.868;2023-12-20T03:37:24;95737.19;;;1.84;100.00
16834;BME280;8533;48.426;10.868;2023-12-20T03:39:49;96033.31;;;3.72;100.00
16834;BME280;8533;48.426;10.868;2023-12-20T03:42:15;95984.63;;;3.49;100.00
16834;BME280;8533;48.426;10.868;2023-12-20T03:44:40;95984.06;;;3.47;100.00
16834;BME280;8533;48.426;10.868;2023-12-20T03:47:06;95944.75;;;3.25;100.00
16834;BME280;8533;48.426;10.868;2023-12-20T03:49:32;95963.22;;;3.35;100.00
16834;BME280;8533;48.426;10.868;2023-12-20T03:51:57;95999.72;;;3.59;100.00
16834;BME280;8533;48.426;10.868;2023-12-20T03:54:22;95994.00;;;3.57;100.00
16834;BME280;8533;48.426;10.868;2023-12-20T03:56:47;96007.69;;;3.64;100.00
16834;BME280;8533;48.426;10.868;2023-12-20T03:59:13;95978.47;;;3.50;100.00
16834;BME280;8533;48.426;10.868;2023-12-20T04:01:43;96011.72;;;3.47;100.00
16834;BME280;8533;48.426;10.868;2023-12-20T04:04:08;95987.41;;;3.54;100.00
16834;BME280;8533;48.426;10.868;2023-12-20T04:06:33;95983.44;;;3.52;100.00
16834;BME280;8533;48.426;10.868;2023-12-20T04:08:59;96018.59;;;3.66;100.00
16834;BME280;8533;48.426;10.868;2023-12-20T04:11:24;95978.31;;;3.45;100.00
16834;BME280;8533;48.426;10.868;2023-12-20T04:13:50;95989.38;;;3.59;100.00
16834;BME280;8533;48.426;10.868;2023-12-20T04:16:15;95975.50;;;3.53;100.00
16834;BME280;8533;48.426;10.868;2023-12-20T04:18:40;95968.94;;;3.51;100.00
16834;BME280;8533;48.426;10.868;2023-12-20T04:21:06;95917.78;;;3.15;100.00
16834;BME280;8533;48.426;10.868;2023-12-20T04:23:32;95985.03;;;3.53;100.00
16834;BME280;8533;48.426;10.868;2023-12-20T04:25:57;95976.69;;;3.51;100.00
16834;BME280;8533;48.426;10.868;2023-12-20T04:28:22;95994.34;;;3.60;100.00
16834;BME280;8533;48.426;10.868;2023-12-20T04:30:48;96004.66;;;3.67;100.00
16834;BME280;8533;48.426;10.868;2023-12-20T04:33:13;95990.38;;;3.58;100.00
16834;BME280;8533;48.426;10.868;2023-12-20T04:35:38;95984.03;;;3.54;100.00
16834;BME280;8533;48.426;10.868;2023-12-20T04:38:05;95984.63;;;3.56;100.00
16834;BME280;8533;48.426;10.868;2023-12-20T04:40:31;95804.72;;;2.46;100.00
16834;BME280;8533;48.426;10.868;2023-12-20T04:42:56;95998.09;;;3.71;100.00
16834;BME280;8533;48.426;10.868;2023-12-20T04:45:21;95914.38;;;3.14;100.00
16834;BME280;8533;48.426;10.868;2023-12-20T04:47:48;95980.66;;;3.53;100.00
16834;BME280;8533;48.426;10.868;2023-12-20T04:50:14;95993.78;;;3.52;100.00
16834;BME280;8533;48.426;10.868;2023-12-20T04:52:39;96007.22;;;3.73;100.00
16834;BME280;8533;48.426;10.868;2023-12-20T04:55:05;95931.25;;;3.23;100.00
16834;BME280;8533;48.426;10.868;2023-12-20T04:57:30;96007.22;;;3.73;100.00
16834;BME280;8533;48.426;10.868;2023-12-20T04:59:55;96005.28;;;3.62;100.00
16834;BME280;8533;48.426;10.868;2023-12-20T05:02:21;95975.88;;;3.50;100.00
16834;BME280;8533;48.426;10.868;2023-12-20T05:04:46;95963.97;;;3.42;100.00
16834;BME280;8533;48.426;10.868;2023-12-20T05:07:11;95976.88;;;3.49;100.00
16834;BME280;8533;48.426;10.868;2023-12-20T05:09:37;96003.50;;;3.63;100.00
16834;BME280;8533;48.426;10.868;2023-12-20T05:12:02;95988.81;;;3.57;100.00
16834;BME280;8533;48.426;10.868;2023-12-20T05:14:28;95944.16;;;3.30;100.00
16834;BME280;8533;48.426;10.868;2023-12-20T05:16:53;96024.94;;;3.76;100.00
16834;BME280;8533;48.426;10.868;2023-12-20T05:19:18;95994.19;;;3.55;100.00
16834;BME280;8533;48.426;10.868;2023-12-20T05:21:43;96020.94;;;3.74;100.00
16834;BME280;8533;48.426;10.868;2023-12-20T05:24:09;95842.81;;;2.57;100.00
16834;BME280;8533;48.426;10.868;2023-12-20T05:26:34;96038.06;;;3.75;100.00
16834;BME280;8533;48.426;10.868;2023-12-20T05:28:59;96039.84;;;3.74;100.00
16834;BME280;8533;48.426;10.868;2023-12-20T05:31:25;95962.22;;;3.36;100.00
16834;BME280;8533;48.426;10.868;2023-12-20T05:33:50;95997.72;;;3.61;100.00
16834;BME280;8533;48.426;10.868;2023-12-20T05:36:15;96025.94;;;3.75;100.00
16834;BME280;8533;48.426;10.868;2023-12-20T05:38:41;96036.28;;;3.75;100.00
16834;BME280;8533;48.426;10.868;2023-12-20T05:41:06;96044.81;;;3.76;100.00
16834;BME280;8533;48.426;10.868;2023-12-20T05:43:31;96036.47;;;3.74;100.00
16834;BME280;8533;48.426;10.868;2023-12-20T05:45:56;95981.91;;;3.37;100.00
16834;BME280;8533;48.426;10.868;2023-12-20T05:48:23;96055.16;;;3.76;100.00
16834;BME280;8533;48.426;10.868;2023-12-20T05:50:48;96037.72;;;3.58;100.00
16834;BME280;8533;48.426;10.868;2023-12-20T05:53:14;96051.25;;;3.60;100.00
16834;BME280;8533;48.426;10.868;2023-12-20T05:55:39;96088.59;;;3.77;100.00
16834;BME280;8533;48.426;10.868;2023-12-20T05:58:05;96026.81;;;3.43;100.00
16834;BME280;8533;48.426;10.868;2023-12-20T06:00:30;96089.19;;;3.79;100.00
16834;BME280;8533;48.426;10.868;2023-12-20T06:02:56;95905.75;;;2.62;100.00
16834;BME280;8533;48.426;10.868;2023-12-20T06:05:21;96073.91;;;3.71;100.00
16834;BME280;8533;48.426;10.868;2023-12-20T06:07:47;96082.81;;;3.75;100.00
16834;BME280;8533;48.426;10.868;2023-12-20T06:10:13;96085.63;;;3.80;100.00
16834;BME280;8533;48.426;10.868;2023-12-20T06:12:39;96057.59;;;3.58;100.00
16834;BME280;8533;48.426;10.868;2023-12-20T06:15:04;96064.75;;;3.69;100.00
16834;BME280;8533;48.426;10.868;2023-12-20T06:17:31;96023.88;;;3.39;100.00
16834;BME280;8533;48.426;10.868;2023-12-20T06:19:57;96067.34;;;3.69;100.00
16834;BME280;8533;48.426;10.868;2023-12-20T06:22:22;96067.50;;;3.74;100.00
16834;BME280;8533;48.426;10.868;2023-12-20T06:24:47;96081.44;;;3.79;100.00
16834;BME280;8533;48.426;10.868;2023-12-20T06:27:13;96061.78;;;3.59;100.00
16834;BME280;8533;48.426;10.868;2023-12-20T06:29:38;96084.44;;;3.70;100.00
16834;BME280;8533;48.426;10.868;2023-12-20T06:32:04;96085.47;;;3.62;100.00
16834;BME280;8533;48.426;10.868;2023-12-20T06:34:29;96107.69;;;3.76;100.00
16834;BME280;8533;48.426;10.868;2023-12-20T06:36:54;96093.81;;;3.64;100.00
16834;BME280;8533;48.426;10.868;2023-12-20T06:39:20;96109.28;;;3.77;100.00
16834;BME280;8533;48.426;10.868;2023-12-20T06:41:45;96091.63;;;3.61;100.00
16834;BME280;8533;48.426;10.868;2023-12-20T06:44:10;96102.19;;;3.53;100.00
16834;BME280;8533;48.426;10.868;2023-12-20T06:46:36;96087.25;;;3.55;100.00
16834;BME280;8533;48.426;10.868;2023-12-20T06:49:01;96106.16;;;3.62;100.00
16834;BME280;8533;48.426;10.868;2023-12-20T06:51:26;96121.25;;;3.72;100.00
16834;BME280;8533;48.426;10.868;2023-12-20T06:53:52;95932.78;;;2.47;100.00
16834;BME280;8533;48.426;10.868;2023-12-20T06:56:17;96130.41;;;3.68;100.00
16834;BME280;8533;48.426;10.868;2023-12-20T06:58:43;95942.50;;;2.38;100.00
16834;BME280;8533;48.426;10.868;2023-12-20T07:01:12;96115.69;;;3.42;100.00
16834;BME280;8533;48.426;10.868;2023-12-20T07:03:38;96137.97;;;3.50;100.00
16834;BME280;8533;48.426;10.868;2023-12-20T07:06:03;96092.66;;;3.21;100.00
16834;BME280;8533;48.426;10.868;2023-12-20T07:08:29;96138.19;;;3.48;100.00
16834;BME280;8533;48.426;10.868;2023-12-20T07:10:54;96135.59;;;3.48;100.00
16834;BME280;8533;48.426;10.868;2023-12-20T07:13:19;96066.81;;;3.01;100.00
16834;BME280;8533;48.426;10.868;2023-12-20T07:15:44;96071.22;;;3.07;100.00
16834;BME280;8533;48.426;10.868;2023-12-20T07:18:10;96143.56;;;3.47;100.00
16834;BME280;8533;48.426;10.868;2023-12-20T07:20:35;96130.41;;;3.41;100.00
16834;BME280;8533;48.426;10.868;2023-12-20T07:23:00;96141.34;;;3.43;100.00
16834;BME280;8533;48.426;10.868;2023-12-20T07:25:26;96129.25;;;3.37;100.00
16834;BME280;8533;48.426;10.868;2023-12-20T07:27:51;96136.00;;;3.38;100.00
16834;BME280;8533;48.426;10.868;2023-12-20T07:30:16;96157.09;;;3.49;100.00
16834;BME280;8533;48.426;10.868;2023-12-20T07:32:42;96141.75;;;3.34;100.00
16834;BME280;8533;48.426;10.868;2023-12-20T07:35:07;96158.84;;;3.41;100.00
16834;BME280;8533;48.426;10.868;2023-12-20T07:37:33;96160.84;;;3.46;100.00
16834;BME280;8533;48.426;10.868;2023-12-20T07:39:58;96121.88;;;3.21;100.00
16834;BME280;8533;48.426;10.868;2023-12-20T07:42:23;96157.88;;;3.42;100.00
16834;BME280;8533;48.426;10.868;2023-12-20T07:44:48;96125.28;;;3.15;100.00
16834;BME280;8533;48.426;10.868;2023-12-20T07:47:14;96174.16;;;3.43;100.00
16834;BME280;8533;48.426;10.868;2023-12-20T07:49:42;95909.50;;;1.74;100.00
16834;BME280;8533;48.426;10.868;2023-12-20T07:52:07;96195.44;;;3.52;100.00
16834;BME280;8533;48.426;10.868;2023-12-20T07:54:33;96192.06;;;3.51;100.00
16834;BME280;8533;48.426;10.868;2023-12-20T07:56:58;96149.91;;;3.18;100.00
16834;BME280;8533;48.426;10.868;2023-12-20T07:59:24;96150.91;;;3.17;100.00
16834;BME280;8533;48.426;10.868;2023-12-20T08:01:49;96205.59;;;3.53;100.00
16834;BME280;8533;48.426;10.868;2023-12-20T08:04:14;96182.13;;;3.41;100.00
16834;BME280;8533;48.426;10.868;2023-12-20T08:06:39;96208.97;;;3.54;100.00
16834;BME280;8533;48.426;10.868;2023-12-20T08:09:05;96148.72;;;3.20;100.00
16834;BME280;8533;48.426;10.868;2023-12-20T08:11:30;96202.81;;;3.55;100.00
16834;BME280;8533;48.426;10.868;2023-12-20T08:13:55;96015.38;;;2.40;100.00
16834;BME280;8533;48.426;10.868;2023-12-20T08:16:21;96185.72;;;3.47;100.00
16834;BME280;8533;48.426;10.868;2023-12-20T08:18:47;96047.75;;;2.56;100.00
16834;BME280;8533;48.426;10.868;2023-12-20T08:21:12;96163.03;;;3.29;100.00
16834;BME280;8533;48.426;10.868;2023-12-20T08:23:38;96226.28;;;3.60;100.00
16834;BME280;8533;48.426;10.868;2023-12-20T08:26:07;96219.13;;;3.62;100.00
16834;BME280;8533;48.426;10.868;2023-12-20T08:28:33;96132.41;;;3.13;100.00
16834;BME280;8533;48.426;10.868;2023-12-20T08:30:58;96170.59;;;3.37;100.00
16834;BME280;8533;48.426;10.868;2023-12-20T08:33:24;96154.69;;;3.27;100.00
16834;BME280;8533;48.426;10.868;2023-12-20T08:35:49;96118.91;;;3.11;100.00
16834;BME280;8533;48.426;10.868;2023-12-20T08:38:14;96202.63;;;3.63;100.00
16834;BME280;8533;48.426;10.868;2023-12-20T08:40:40;96201.63;;;3.51;100.00
16834;BME280;8533;48.426;10.868;2023-12-20T08:43:05;96198.81;;;3.59;100.00
16834;BME280;8533;48.426;10.868;2023-12-20T08:45:30;96203.00;;;3.66;100.00
16834;BME280;8533;48.426;10.868;2023-12-20T08:47:55;96163.03;;;3.49;100.00
16834;BME280;8533;48.426;10.868;2023-12-20T08:50:21;96193.44;;;3.67;100.00
16834;BME280;8533;48.426;10.868;2023-12-20T08:52:46;96196.22;;;3.85;100.00
16834;BME280;8533;48.426;10.868;2023-12-20T08:55:12;96198.00;;;3.98;100.00
16834;BME280;8533;48.426;10.868;2023-12-20T08:57:38;96183.88;;;3.94;100.00
16834;BME280;8533;48.426;10.868;2023-12-20T09:00:04;96123.63;;;3.67;100.00
16834;BME280;8533;48.426;10.868;2023-12-20T09:02:29;96194.19;;;4.13;100.00
16834;BME280;8533;48.426;10.868;2023-12-20T09:04:54;96165.75;;;4.00;100.00
16834;BME280;8533;48.426;10.868;2023-12-20T09:07:26;96097.97;;;3.65;100.00
16834;BME280;8533;48.426;10.868;2023-12-20T09:09:53;96192.75;;;4.31;100.00
16834;BME280;8533;48.426;10.868;2023-12-20T09:12:19;96135.31;;;3.96;100.00
16834;BME280;8533;48.426;10.868;2023-12-20T09:14:48;96189.75;;;4.34;100.00
16834;BME280;8533;48.426;10.868;2023-12-20T09:17:15;96205.88;;;4.36;100.00
16834;BME280;8533;48.426;10.868;2023-12-20T09:19:41;96204.09;;;4.36;100.00
16834;BME280;8533;48.426;10.868;2023-12-20T09:22:07;96127.59;;;3.89;100.00
16834;BME280;8533;48.426;10.868;2023-12-20T09:24:32;96202.31;;;4.37;100.00
16834;BME280;8533;48.426;10.868;2023-12-20T09:26:58;96208.28;;;4.37;100.00
16834;BME280;8533;48.426;10.868;2023-12-20T09:29:23;96199.88;;;4.42;100.00
16834;BME280;8533;48.426;10.868;2023-12-20T09:31:50;96141.47;;;4.01;100.00
16834;BME280;8533;48.426;10.868;2023-12-20T09:34:15;96196.34;;;4.30;100.00
16834;BME280;8533;48.426;10.868;2023-12-20T09:36:41;96184.75;;;4.39;100.00
16834;BME280;8533;48.426;10.868;2023-12-20T09:39:14;96185.53;;;4.46;100.00
16834;BME280;8533;48.426;10.868;2023-12-20T09:41:44;96180.34;;;4.46;100.00
16834;BME280;8533;48.426;10.868;2023-12-20T09:44:14;96191.47;;;4.53;100.00
16834;BME280;8533;48.426;10.868;2023-12-20T09:46:43;96206.47;;;4.38;100.00
16834;BME280;8533;48.426;10.868;2023-12-20T09:49:08;96197.81;;;4.57;100.00
16834;BME280;8533;48.426;10.868;2023-12-20T09:51:34;96211.16;;;4.67;100.00
16834;BME280;8533;48.426;10.868;2023-12-20T09:54:00;96189.06;;;4.58;100.00
16834;BME280;8533;48.426;10.868;2023-12-20T09:56:28;96186.06;;;4.54;100.00
16834;BME280;8533;48.426;10.868;2023-12-20T09:58:54;96199.38;;;4.65;100.00
16834;BME280;8533;48.426;10.868;2023-12-20T10:01:19;96191.81;;;4.63;100.00
16834;BME280;8533;48.426;10.868;2023-12-20T10:03:46;96193.84;;;4.61;100.00
16834;BME280;8533;48.426;10.868;2023-12-20T10:06:11;96198.78;;;4.69;100.00
16834;BME280;8533;48.426;10.868;2023-12-20T10:08:36;96188.19;;;4.71;100.00
16834;BME280;8533;48.426;10.868;2023-12-20T10:11:02;96179.84;;;4.69;100.00
16834;BME280;8533;48.426;10.868;2023-12-20T10:13:29;96150.44;;;4.50;100.00
16834;BME280;8533;48.426;10.868;2023-12-20T10:15:55;96177.19;;;4.82;100.00
16834;BME280;8533;48.426;10.868;2023-12-20T10:18:20;96188.06;;;4.97;100.00
16834;BME280;8533;48.426;10.868;2023-12-20T10:20:46;96192.03;;;4.99;100.00
16834;BME280;8533;48.426;10.868;2023-12-20T10:23:11;96192.66;;;5.02;100.00
16834;BME280;8533;48.426;10.868;2023-12-20T10:25:39;96109.84;;;4.44;100.00
16834;BME280;8533;48.426;10.868;2023-12-20T10:28:15;96095.91;;;4.38;100.00
16834;BME280;8533;48.426;10.868;2023-12-20T10:30:46;96155.06;;;4.79;100.00
16834;BME280;8533;48.426;10.868;2023-12-20T10:33:11;96183.53;;;4.92;100.00
16834;BME280;8533;48.426;10.868;2023-12-20T10:35:40;96178.94;;;4.88;100.00
16834;BME280;8533;48.426;10.868;2023-12-20T10:38:06;96076.84;;;4.33;100.00
16834;BME280;8533;48.426;10.868;2023-12-20T10:40:36;96175.34;;;4.89;100.00
16834;BME280;8533;48.426;10.868;2023-12-20T10:43:03;96193.09;;;4.92;100.00
16834;BME280;8533;48.426;10.868;2023-12-20T10:45:28;96190.94;;;4.82;100.00
16834;BME280;8533;48.426;10.868;2023-12-20T10:47:53;96193.13;;;4.85;100.00
16834;BME280;8533;48.426;10.868;2023-12-20T10:50:19;96173.78;;;4.43;100.00
16834;BME280;8533;48.426;10.868;2023-12-20T10:52:46;96191.41;;;4.21;100.00
16834;BME280;8533;48.426;10.868;2023-12-20T10:55:12;96217.38;;;4.46;100.00
16834;BME280;8533;48.426;10.868;2023-12-20T10:57:38;96179.44;;;4.14;100.00
16834;BME280;8533;48.426;10.868;2023-12-20T11:00:06;96242.19;;;4.09;100.00
16834;BME280;8533;48.426;10.868;2023-12-20T11:02:39;96227.78;;;4.33;100.00
16834;BME280;8533;48.426;10.868;2023-12-20T11:08:02;96244.53;;;4.24;100.00
16834;BME280;8533;48.426;10.868;2023-12-20T11:10:41;95947.84;;;2.76;100.00
16834;BME280;8533;48.426;10.868;2023-12-20T11:13:13;96186.75;;;4.37;100.00
16834;BME280;8533;48.426;10.868;2023-12-20T11:15:42;96180.78;;;4.36;100.00
16834;BME280;8533;48.426;10.868;2023-12-20T11:18:08;96169.22;;;4.32;100.00
16834;BME280;8533;48.426;10.868;2023-12-20T11:20:39;96218.53;;;4.64;100.00
16834;BME280;8533;48.426;10.868;2023-12-20T11:23:06;96207.16;;;4.65;100.00
16834;BME280;8533;48.426;10.868;2023-12-20T11:25:48;96212.13;;;4.66;100.00
16834;BME280;8533;48.426;10.868;2023-12-20T11:28:14;96210.50;;;4.72;100.00
16834;BME280;8533;48.426;10.868;2023-12-20T11:30:45;96216.91;;;4.69;100.00
16834;BME280;8533;48.426;10.868;2023-12-20T11:33:13;96005.38;;;3.36;100.00
16834;BME280;8533;48.426;10.868;2023-12-20T11:35:39;96206.88;;;4.79;100.00
16834;BME280;8533;48.426;10.868;2023-12-20T11:38:07;96224.56;;;4.95;100.00
16834;BME280;8533;48.426;10.868;2023-12-20T11:40:33;96205.06;;;4.93;100.00
16834;BME280;8533;48.426;10.868;2023-12-20T11:42:58;96168.81;;;4.86;100.00
16834;BME280;8533;48.426;10.868;2023-12-20T11:45:24;96210.94;;;5.07;100.00
16834;BME280;8533;48.426;10.868;2023-12-20T11:47:51;96220.06;;;5.16;100.00
16834;BME280;8533;48.426;10.868;2023-12-20T11:50:17;96219.44;;;5.20;100.00
16834;BME280;8533;48.426;10.868;2023-12-20T11:52:42;96211.88;;;5.19;100.00
16834;BME280;8533;48.426;10.868;2023-12-20T11:55:08;96044.25;;;4.18;100.00
16834;BME280;8533;48.426;10.868;2023-12-20T11:57:33;96205.56;;;5.08;100.00
16834;BME280;8533;48.426;10.868;2023-12-20T11:59:59;96151.53;;;4.74;100.00
16834;BME280;8533;48.426;10.868;2023-12-20T12:02:24;96173.03;;;4.74;100.00
16834;BME280;8533;48.426;10.868;2023-12-20T12:04:50;96214.16;;;5.02;100.00
16834;BME280;8533;48.426;10.868;2023-12-20T12:07:18;96195.84;;;4.97;100.00
16834;BME280;8533;48.426;10.868;2023-12-20T12:09:43;96204.50;;;5.16;100.00
16834;BME280;8533;48.426;10.868;2023-12-20T12:12:09;96206.09;;;5.17;100.00
16834;BME280;8533;48.426;10.868;2023-12-20T12:14:35;96212.69;;;5.13;100.00
16834;BME280;8533;48.426;10.868;2023-12-20T12:17:02;96160.25;;;4.79;100.00
16834;BME280;8533;48.426;10.868;2023-12-20T12:19:29;96175.00;;;4.79;100.00
16834;BME280;8533;48.426;10.868;2023-12-20T12:22:11;96046.81;;;3.74;100.00
16834;BME280;8533;48.426;10.868;2023-12-20T12:24:42;96218.47;;;4.77;100.00
16834;BME280;8533;48.426;10.868;2023-12-20T12:27:08;96210.56;;;4.65;100.00
16834;BME280;8533;48.426;10.868;2023-12-20T12:29:35;96158.50;;;4.22;100.00
16834;BME280;8533;48.426;10.868;2023-12-20T12:32:01;96171.22;;;4.37;100.00
16834;BME280;8533;48.426;10.868;2023-12-20T12:34:29;96218.94;;;4.60;100.00
16834;BME280;8533;48.426;10.868;2023-12-20T12:36:55;96215.38;;;4.62;100.00
16834;BME280;8533;48.426;10.868;2023-12-20T12:39:23;96137.25;;;4.20;100.00
16834;BME280;8533;48.426;10.868;2023-12-20T12:41:50;96209.56;;;4.66;100.00
16834;BME280;8533;48.426;10.868;2023-12-20T12:44:15;96185.13;;;4.49;100.00
16834;BME280;8533;48.426;10.868;2023-12-20T12:46:40;96023.88;;;3.39;100.00
16834;BME280;8533;48.426;10.868;2023-12-20T12:49:05;96145.03;;;4.13;100.00
16834;BME280;8533;48.426;10.868;2023-12-20T12:51:31;96188.97;;;4.27;100.00
16834;BME280;8533;48.426;10.868;2023-12-20T12:53:56;96188.97;;;4.27;100.00
16834;BME280;8533;48.426;10.868;2023-12-20T12:56:22;96151.84;;;3.88;100.00
16834;BME280;8533;48.426;10.868;2023-12-20T12:58:47;96171.91;;;3.99;100.00